createdAt,value
2019-06-27T00:01:51.967Z,81.09
2019-06-27T00:04:55.760Z,80.57
2019-06-27T00:07:59.121Z,81.20
2019-06-27T00:11:02.531Z,82.59
2019-06-27T00:14:06.159Z,83.47
2019-06-27T00:17:09.763Z,82.03
2019-06-27T00:20:13.204Z,83.00
2019-06-27T00:23:17.005Z,83.61
2019-06-27T00:26:20.277Z,84.61
2019-06-27T00:29:23.235Z,84.82
2019-06-27T00:32:26.173Z,84.98
2019-06-27T00:35:29.143Z,82.36
2019-06-27T00:38:32.111Z,84.18
2019-06-27T00:41:35.186Z,84.86
2019-06-27T00:44:38.148Z,84.51
2019-06-27T00:47:41.097Z,86.16
2019-06-27T00:50:44.654Z,85.75
2019-06-27T00:53:47.977Z,84.78
2019-06-27T00:56:50.939Z,84.20
2019-06-27T00:59:54.664Z,84.79
2019-06-27T01:02:57.624Z,85.67
2019-06-27T01:06:00.997Z,84.71
2019-06-27T01:13:27.346Z,85.33
2019-06-27T01:16:30.759Z,82.93
2019-06-27T01:19:33.824Z,83.88
2019-06-27T01:22:36.746Z,86.89
2019-06-27T01:25:39.719Z,83.57
2019-06-27T01:28:43.325Z,85.74
2019-06-27T01:31:46.837Z,85.47
2019-06-27T01:34:50.006Z,84.46
2019-06-27T01:37:53.301Z,84.84
2019-06-27T01:40:56.275Z,87.14
2019-06-27T01:43:59.257Z,86.86
2019-06-27T01:47:03.393Z,88.77
2019-06-27T01:50:06.471Z,86.20
2019-06-27T01:53:09.700Z,87.15
2019-06-27T01:56:12.652Z,87.67
2019-06-27T01:59:15.920Z,86.40
2019-06-27T02:02:20.267Z,86.86
2019-06-27T02:05:23.355Z,88.49
2019-06-27T02:08:26.670Z,87.47
2019-06-27T02:11:29.961Z,87.66
2019-06-27T02:14:33.668Z,87.51
2019-06-27T02:17:37.033Z,88.20
2019-06-27T02:20:40.390Z,85.55
2019-06-27T02:23:43.356Z,85.72
2019-06-27T02:26:46.308Z,89.67
2019-06-27T02:29:49.287Z,87.58
2019-06-27T02:32:52.686Z,88.69
2019-06-27T02:35:55.663Z,89.10
2019-06-27T02:38:58.610Z,88.29
2019-06-27T02:42:01.542Z,87.20
2019-06-27T02:45:05.400Z,85.82
2019-06-27T02:48:08.693Z,87.94
2019-06-27T02:51:11.718Z,86.32
2019-06-27T02:54:15.364Z,85.52
2019-06-27T02:57:18.622Z,86.12
2019-06-27T03:00:21.800Z,87.12
2019-06-27T03:03:24.718Z,86.87
2019-06-27T03:06:27.710Z,86.78
2019-06-27T03:09:31.075Z,85.74
2019-06-27T03:12:34.483Z,89.19
2019-06-27T03:15:37.426Z,88.10
2019-06-27T03:18:41.019Z,89.93
2019-06-27T03:21:43.980Z,91.67
2019-06-27T03:24:46.911Z,90.51
2019-06-27T03:27:50.950Z,89.58
2019-06-27T03:30:54.223Z,90.63
2019-06-27T03:33:57.806Z,88.68
2019-06-27T03:37:00.767Z,91.34
2019-06-27T03:40:04.797Z,90.72
2019-06-27T03:43:07.749Z,85.94
2019-06-27T03:46:10.716Z,88.17
2019-06-27T03:49:14.342Z,88.71
2019-06-27T03:52:17.613Z,88.12
2019-06-27T03:55:21.006Z,88.40
2019-06-27T03:58:23.956Z,87.55
2019-06-27T04:01:27.541Z,90.28
2019-06-27T04:04:30.824Z,90.27
2019-06-27T04:07:33.927Z,89.24
2019-06-27T04:10:37.138Z,87.16
2019-06-27T04:13:40.114Z,88.63
2019-06-27T04:16:43.077Z,90.69
2019-06-27T04:19:46.066Z,88.80
2019-06-27T04:22:49.633Z,89.61
2019-06-27T04:25:52.883Z,87.36
2019-06-27T04:28:56.448Z,87.65
2019-06-27T04:32:00.023Z,87.80
2019-06-27T04:35:03.446Z,86.71
2019-06-27T04:38:06.409Z,89.27
2019-06-27T04:41:09.990Z,88.61
2019-06-27T04:44:13.262Z,90.25
2019-06-27T04:47:16.210Z,90.28
2019-06-27T04:50:19.171Z,87.77
2019-06-27T04:53:22.481Z,88.33
2019-06-27T04:56:25.911Z,90.36
2019-06-27T04:59:29.189Z,90.17
2019-06-27T05:02:32.142Z,91.46
2019-06-27T05:05:35.092Z,87.68
2019-06-27T05:08:38.453Z,87.55
2019-06-27T05:11:41.421Z,88.33
2019-06-27T05:14:44.408Z,88.47
2019-06-27T05:17:47.466Z,90.95
2019-06-27T05:20:50.551Z,89.54
2019-06-27T05:23:53.526Z,86.52
2019-06-27T05:26:57.530Z,88.41
2019-06-27T05:30:09.653Z,89.45
2019-06-27T05:33:05.852Z,89.74
2019-06-27T05:36:08.798Z,88.07
2019-06-27T05:39:11.886Z,86.28
2019-06-27T05:42:14.794Z,86.85
2019-06-27T05:45:18.479Z,86.52
2019-06-27T05:48:21.797Z,84.00
2019-06-27T05:51:24.767Z,85.47
2019-06-27T05:54:28.384Z,83.34
2019-06-27T05:57:31.692Z,88.38
2019-06-27T06:00:35.141Z,84.72
2019-06-27T06:03:38.391Z,85.03
2019-06-27T06:06:41.399Z,86.05
2019-06-27T06:09:44.807Z,86.79
2019-06-27T06:12:47.787Z,87.29
2019-06-27T06:15:51.095Z,82.92
2019-06-27T06:18:54.436Z,87.78
2019-06-27T06:21:58.039Z,85.42
2019-06-27T06:25:01.027Z,86.48
2019-06-27T06:28:04.559Z,83.41
2019-06-27T06:31:07.512Z,82.83
2019-06-27T06:34:10.466Z,82.70
2019-06-27T06:37:13.427Z,86.28
2019-06-27T06:40:16.902Z,97.29
2019-06-27T06:43:19.872Z,85.08
2019-06-27T06:46:22.827Z,89.46
2019-06-27T06:49:26.208Z,88.60
2019-06-27T06:52:29.191Z,90.02
2019-06-27T06:55:32.777Z,86.14
2019-06-27T06:58:35.764Z,87.56
2019-06-27T07:01:39.612Z,89.06
2019-06-27T07:04:42.680Z,86.07
2019-06-27T07:07:45.649Z,86.38
2019-06-27T07:10:49.319Z,84.88
2019-06-27T07:13:52.950Z,81.85
2019-06-27T07:16:55.908Z,82.30
2019-06-27T07:19:59.217Z,82.36
2019-06-27T07:23:02.715Z,78.39
2019-06-27T07:26:06.052Z,82.06
2019-06-27T07:29:09.019Z,84.86
2019-06-27T07:32:11.952Z,84.89
2019-06-27T07:35:15.344Z,83.07
2019-06-27T07:38:18.287Z,76.19
2019-06-27T07:41:21.815Z,75.62
2019-06-27T07:44:25.191Z,78.31
2019-06-27T07:47:28.387Z,80.71
2019-06-27T07:50:31.324Z,78.09
2019-06-27T07:53:34.576Z,80.37
2019-06-27T07:56:37.528Z,79.36
2019-06-27T07:59:40.946Z,77.58
2019-06-27T08:02:44.283Z,75.67
2019-06-27T08:05:47.532Z,74.92
2019-06-27T08:08:51.585Z,77.16
2019-06-27T08:11:54.679Z,79.31
2019-06-27T08:14:58.068Z,79.92
2019-06-27T08:18:01.400Z,76.06
2019-06-27T08:21:06.084Z,74.84
2019-06-27T08:24:09.381Z,79.61
2019-06-27T08:27:12.306Z,81.39
2019-06-27T08:30:15.378Z,81.05
2019-06-27T08:33:18.356Z,80.41
2019-06-27T08:36:21.642Z,82.01
2019-06-27T08:39:24.590Z,79.11
2019-06-27T08:42:27.964Z,77.54
2019-06-27T08:45:30.895Z,79.08
2019-06-27T08:48:34.208Z,78.66
2019-06-27T08:51:38.194Z,76.76
2019-06-27T08:54:41.522Z,76.01
2019-06-27T08:57:45.052Z,74.82
2019-06-27T09:00:48.069Z,79.26
2019-06-27T09:03:51.013Z,75.11
2019-06-27T09:06:54.289Z,74.32
2019-06-27T09:09:57.539Z,75.56
2019-06-27T09:13:00.815Z,75.54
2019-06-27T09:16:03.772Z,70.74
2019-06-27T09:19:06.817Z,71.06
2019-06-27T09:22:10.165Z,73.41
2019-06-27T09:25:13.650Z,72.76
2019-06-27T09:28:16.885Z,66.00
2019-06-27T09:31:20.865Z,71.98
2019-06-27T09:34:23.770Z,69.29
2019-06-27T09:37:27.037Z,69.80
2019-06-27T09:40:30.444Z,68.00
2019-06-27T09:43:33.415Z,70.44
2019-06-27T09:46:36.429Z,70.86
2019-06-27T09:49:39.716Z,70.16
2019-06-27T09:52:42.662Z,68.36
2019-06-27T09:55:47.537Z,67.60
2019-06-27T09:58:50.915Z,67.69
2019-06-27T10:01:54.170Z,62.98
2019-06-27T10:04:57.131Z,63.41
2019-06-27T10:08:00.815Z,61.96
2019-06-27T10:11:03.826Z,59.46
2019-06-27T10:14:08.663Z,58.80
2019-06-27T10:17:11.610Z,59.94
2019-06-27T10:20:15.765Z,58.20
2019-06-27T10:23:18.687Z,56.49
2019-06-27T10:26:22.330Z,59.08
2019-06-27T10:29:25.651Z,56.27
2019-06-27T10:32:28.596Z,59.29
2019-06-27T10:35:31.953Z,57.83
2019-06-27T10:38:35.325Z,59.87
2019-06-27T10:41:38.278Z,54.09
2019-06-27T10:44:42.370Z,60.42
2019-06-27T10:47:45.607Z,54.39
2019-06-27T10:50:48.563Z,57.99
2019-06-27T10:53:51.929Z,56.35
2019-06-27T10:56:54.906Z,54.87
2019-06-27T10:59:58.277Z,55.01
2019-06-27T11:03:14.300Z,52.44
2019-06-27T11:06:07.102Z,49.91
2019-06-27T11:09:13.493Z,50.95
2019-06-27T11:12:15.345Z,48.20
2019-06-27T11:15:18.414Z,48.41
2019-06-27T11:18:21.706Z,47.83
2019-06-27T11:21:24.697Z,49.41
2019-06-27T11:24:28.032Z,49.73
2019-06-27T11:27:30.974Z,48.05
2019-06-27T11:30:33.943Z,48.83
2019-06-27T11:33:37.484Z,48.59
2019-06-27T11:36:40.803Z,47.23
2019-06-27T11:39:44.097Z,45.38
2019-06-27T11:42:47.696Z,45.14
2019-06-27T11:45:51.696Z,44.37
2019-06-27T11:48:55.062Z,46.47
2019-06-27T11:51:57.993Z,45.89
2019-06-27T11:55:01.446Z,44.82
2019-06-27T11:58:04.586Z,46.89
2019-06-27T12:01:07.532Z,44.14
2019-06-27T12:04:11.121Z,42.31
2019-06-27T12:07:14.051Z,45.84
2019-06-27T12:10:17.929Z,45.48
2019-06-27T12:13:20.970Z,45.11
2019-06-27T12:16:24.056Z,42.88
2019-06-27T12:19:27.015Z,43.90
2019-06-27T12:22:30.214Z,41.98
2019-06-27T12:25:33.437Z,45.94
2019-06-27T12:28:36.379Z,45.06
2019-06-27T12:31:39.335Z,44.83
2019-06-27T12:34:42.247Z,42.88
2019-06-27T12:37:45.198Z,45.53
2019-06-27T12:40:48.152Z,43.01
2019-06-27T12:43:51.093Z,43.59
2019-06-27T12:46:54.432Z,42.37
2019-06-27T12:50:02.675Z,43.59
2019-06-27T12:53:03.574Z,42.11
2019-06-27T12:56:06.898Z,46.07
2019-06-27T12:59:09.943Z,43.92
2019-06-27T13:02:13.422Z,44.11
2019-06-27T13:05:20.288Z,44.03
2019-06-27T13:08:23.732Z,44.13
2019-06-27T13:11:27.095Z,44.91
2019-06-27T13:14:30.300Z,44.36
2019-06-27T13:17:33.572Z,45.18
2019-06-27T13:20:37.613Z,42.37
2019-06-27T13:23:41.296Z,44.06
2019-06-27T13:26:44.574Z,44.14
2019-06-27T13:29:47.503Z,42.78
2019-06-27T13:32:50.445Z,44.19
2019-06-27T13:35:53.394Z,44.63
2019-06-27T13:38:56.599Z,45.53
2019-06-27T13:41:59.990Z,47.25
2019-06-27T13:45:03.585Z,48.14
2019-06-27T13:48:06.923Z,49.47
2019-06-27T13:51:10.486Z,44.15
2019-06-27T13:54:13.582Z,48.97
2019-06-27T13:57:17.421Z,47.79
2019-06-27T14:00:35.504Z,47.68
2019-06-27T14:03:48.615Z,49.40
2019-06-27T14:06:43.761Z,48.95
2019-06-27T14:09:53.822Z,46.66
2019-06-27T14:12:52.130Z,48.35
2019-06-27T14:15:55.416Z,51.24
2019-06-27T14:18:58.533Z,48.68
2019-06-27T14:22:01.572Z,48.80
2019-06-27T14:25:04.871Z,47.45
2019-06-27T14:28:07.926Z,46.75
2019-06-27T14:31:10.964Z,46.11
2019-06-27T14:34:14.274Z,46.72
2019-06-27T14:37:17.200Z,45.23
2019-06-27T14:40:21.178Z,47.74
2019-06-27T14:43:24.097Z,47.47
2019-06-27T14:46:27.047Z,45.67
2019-06-27T14:49:30.296Z,47.17
2019-06-27T14:52:35.104Z,45.80
2019-06-27T14:55:38.249Z,49.95
2019-06-27T14:58:41.493Z,47.53
2019-06-27T15:01:44.614Z,49.55
2019-06-27T15:04:47.587Z,46.94
2019-06-27T15:07:50.542Z,47.72
2019-06-27T15:10:53.894Z,51.81
2019-06-27T15:13:58.549Z,47.02
2019-06-27T15:17:01.819Z,48.10
2019-06-27T15:20:05.210Z,51.60
2019-06-27T15:23:08.164Z,46.10
2019-06-27T15:26:13.434Z,46.90
2019-06-27T15:29:16.703Z,52.04
2019-06-27T15:32:21.165Z,50.22
2019-06-27T15:35:24.109Z,51.21
2019-06-27T15:38:27.037Z,49.23
2019-06-27T15:41:29.954Z,51.31
2019-06-27T15:44:32.902Z,48.11
2019-06-27T15:47:36.552Z,50.44
2019-06-27T15:50:39.781Z,52.13
2019-06-27T15:53:42.789Z,51.40
2019-06-27T15:56:45.788Z,52.21
2019-06-27T15:59:48.749Z,53.01
2019-06-27T16:02:52.142Z,52.62
2019-06-27T16:06:08.599Z,55.57
2019-06-27T16:09:00.361Z,55.69
2019-06-27T16:12:03.292Z,54.62
2019-06-27T16:15:06.919Z,53.41
2019-06-27T16:18:09.884Z,53.35
2019-06-27T16:21:12.859Z,55.24
2019-06-27T16:24:16.150Z,55.19
2019-06-27T16:27:19.082Z,55.87
2019-06-27T16:30:22.425Z,58.15
2019-06-27T16:33:26.382Z,57.33
2019-06-27T16:36:29.632Z,57.34
2019-06-27T16:39:32.930Z,54.57
2019-06-27T16:42:36.394Z,56.48
2019-06-27T16:45:40.744Z,58.29
2019-06-27T16:48:44.210Z,55.79
2019-06-27T16:51:47.977Z,60.07
2019-06-27T16:54:50.910Z,55.48
2019-06-27T16:57:53.878Z,56.81
2019-06-27T17:00:56.815Z,57.06
2019-06-27T17:03:59.840Z,54.24
2019-06-27T17:07:02.813Z,51.20
2019-06-27T17:10:06.901Z,52.72
2019-06-27T17:13:10.161Z,55.24
2019-06-27T17:16:13.148Z,54.59
2019-06-27T17:19:16.049Z,57.08
2019-06-27T17:22:19.312Z,56.51
2019-06-27T17:25:22.337Z,55.91
2019-06-27T17:28:25.576Z,60.18
2019-06-27T17:31:28.536Z,58.09
2019-06-27T17:34:31.477Z,57.74
2019-06-27T17:37:34.418Z,53.85
2019-06-27T17:40:37.735Z,57.35
2019-06-27T17:43:41.644Z,60.18
2019-06-27T17:46:46.542Z,60.71
2019-06-27T17:49:49.826Z,61.78
2019-06-27T17:52:53.681Z,62.94
2019-06-27T17:55:57.636Z,63.92
2019-06-27T17:59:00.973Z,63.93
2019-06-27T18:02:04.451Z,65.65
2019-06-27T18:05:07.709Z,65.71
2019-06-27T18:08:13.605Z,66.25
2019-06-27T18:11:16.692Z,64.45
2019-06-27T18:14:19.885Z,64.80
2019-06-27T18:17:33.101Z,64.73
2019-06-27T18:20:27.921Z,65.59
2019-06-27T18:23:31.063Z,65.99
2019-06-27T18:26:34.351Z,65.93
2019-06-27T18:29:37.657Z,66.28
2019-06-27T18:32:41.062Z,65.31
2019-06-27T18:35:44.186Z,66.74
2019-06-27T18:38:47.304Z,66.29
2019-06-27T18:41:50.322Z,66.07
2019-06-27T18:44:53.875Z,66.39
2019-06-27T18:47:56.914Z,65.96
2019-06-27T18:51:00.030Z,66.74
2019-06-27T18:54:03.637Z,67.24
2019-06-27T18:57:06.659Z,67.91
2019-06-27T19:00:09.919Z,67.77
2019-06-27T19:03:12.987Z,67.63
2019-06-27T19:06:16.282Z,68.26
2019-06-27T19:09:19.705Z,68.20
2019-06-27T19:12:23.159Z,68.58
2019-06-27T19:15:26.584Z,69.90
2019-06-27T19:18:49.305Z,69.77
2019-06-27T19:22:15.104Z,70.17
2019-06-27T19:25:28.963Z,70.68
2019-06-27T19:28:32.623Z,70.98
2019-06-27T19:31:36.081Z,70.79
2019-06-27T19:34:39.025Z,70.99
2019-06-27T19:37:42.796Z,71.84
2019-06-27T19:40:45.723Z,71.76
2019-06-27T19:43:57.122Z,71.92
2019-06-27T19:47:00.520Z,71.50
2019-06-27T19:50:05.134Z,70.74
2019-06-27T19:53:08.719Z,70.85
2019-06-27T19:56:11.751Z,70.93
2019-06-27T19:59:16.817Z,70.18
2019-06-27T20:02:20.098Z,69.47
2019-06-27T20:05:23.090Z,69.71
2019-06-27T20:08:26.027Z,69.27
2019-06-27T20:11:29.083Z,69.33
2019-06-27T20:14:32.178Z,69.57
2019-06-27T20:17:35.466Z,69.54
2019-06-27T20:20:38.999Z,69.04
2019-06-27T20:23:42.009Z,68.41
2019-06-27T20:26:44.980Z,69.80
2019-06-27T20:29:48.025Z,67.21
2019-06-27T20:32:51.788Z,66.98
2019-06-27T20:35:54.845Z,68.76
2019-06-27T20:38:58.253Z,68.14
2019-06-27T20:42:01.282Z,69.46
2019-06-27T20:54:01.633Z,67.51
2019-06-27T20:57:05.800Z,69.78
2019-06-27T21:00:12.223Z,69.28
2019-06-27T21:03:16.126Z,69.82
2019-06-27T21:06:32.179Z,69.20
2019-06-27T21:09:47.826Z,70.57
2019-06-27T21:13:04.202Z,69.03
2019-06-27T21:16:16.432Z,70.29
2019-06-27T21:19:20.206Z,70.27
2019-06-27T21:22:32.591Z,70.62
2019-06-27T21:26:01.914Z,72.52
2019-06-27T21:29:24.192Z,71.03
2019-06-27T21:32:34.171Z,70.98
2019-06-27T21:35:54.033Z,70.50
2019-06-27T21:39:07.493Z,71.22
2019-06-27T21:42:04.286Z,72.90
2019-06-27T21:45:09.113Z,71.27
2019-06-27T21:48:25.293Z,71.97
2019-06-27T21:51:49.091Z,73.79
2019-06-27T21:56:14.640Z,72.57
2019-06-27T22:03:46.233Z,71.99
2019-06-27T22:06:54.170Z,73.60
2019-06-27T22:11:04.116Z,73.76
2019-06-27T22:14:07.306Z,74.00
2019-06-27T22:17:12.490Z,73.30
2019-06-27T22:20:17.583Z,74.14
2019-06-27T22:23:21.103Z,73.14
2019-06-27T22:26:24.335Z,74.00
2019-06-27T22:29:27.800Z,74.53
2019-06-27T22:32:31.231Z,74.71
2019-06-27T22:35:35.116Z,74.58
2019-06-27T22:39:00.204Z,74.01
2019-06-27T22:42:24.598Z,74.98
2019-06-27T22:45:50.500Z,74.16
2019-06-27T22:49:03.699Z,73.78
2019-06-27T22:52:49.955Z,76.02
2019-06-27T22:56:41.955Z,76.38
2019-06-27T23:14:49.719Z,77.86
2019-06-27T23:18:18.050Z,76.83
2019-06-27T23:21:32.853Z,75.84
2019-06-27T23:24:58.494Z,74.15
2019-06-27T23:28:09.602Z,75.91
2019-06-27T23:31:24.163Z,75.94
2019-06-27T23:34:29.968Z,76.41
2019-06-27T23:37:33.862Z,77.29
2019-06-27T23:40:37.844Z,78.54
2019-06-27T23:43:44.484Z,76.32
2019-06-27T23:46:48.163Z,78.14
2019-06-27T23:49:52.526Z,79.93
2019-06-27T23:53:00.132Z,77.45
2019-06-27T23:56:10.125Z,78.02
2019-06-27T23:59:14.051Z,78.17
